Time;durP1;ratioP1;P1;durP2;ratioP2;P2;SDS_P1;SDS_P2;PMS_P1;PMS_P2;Temp;Humidity;BMP_temperature;BMP_pressure;BME280_temperature;BME280_humidity;BME280_pressure;Samples;Min_cycle;Max_cycle;Signal;HPM_P1;HPM_P2
2022/12/31 00:01:45;;;;;;;9.05;5.35;;;;;;;6.50;76.42;100266.13;1669397;84;21194;-81
2022/12/31 00:04:12;;;;;;;8.40;5.50;;;;;;;6.52;76.45;100258.84;1650702;84;26720;-80
2022/12/31 00:06:38;;;;;;;9.55;5.20;;;;;;;6.56;76.45;100269.53;1668051;84;21092;-80
2022/12/31 00:09:09;;;;;;;8.50;5.40;;;;;;;6.60;76.45;100258.80;1666263;84;21135;-80
2022/12/31 00:11:53;;;;;;;7.97;4.58;;;;;;;6.64;76.46;100251.07;1671382;84;21121;-80
2022/12/31 00:14:20;;;;;;;6.70;4.40;;;;;;;6.70;76.46;100259.17;1655735;84;21098;-80
2022/12/31 00:16:46;;;;;;;7.10;4.75;;;;;;;6.73;76.44;100248.88;1666219;84;21845;-80
2022/12/31 00:19:13;;;;;;;7.65;4.87;;;;;;;6.77;76.43;100244.11;1660073;84;21085;-80
2022/12/31 00:21:40;;;;;;;6.03;4.90;;;;;;;6.79;76.42;100235.11;1668426;84;21416;-80
2022/12/31 00:24:07;;;;;;;6.08;4.78;;;;;;;6.82;76.41;100252.64;1671132;83;21722;-80
2022/12/31 00:26:34;;;;;;;7.10;4.53;;;;;;;6.86;76.41;100231.20;1676245;84;21293;-80
2022/12/31 00:29:03;;;;;;;7.70;4.47;;;;;;;6.90;76.42;100235.89;1660968;84;21087;-80
2022/12/31 00:31:42;;;;;;;8.13;4.62;;;;;;;6.92;76.39;100229.02;1659125;84;21044;-80
2022/12/31 00:34:09;;;;;;;5.22;4.22;;;;;;;6.93;76.41;100232.87;1657909;84;21080;-80
2022/12/31 00:36:38;;;;;;;8.63;4.85;;;;;;;6.97;76.41;100231.13;1660726;84;21606;-80
2022/12/31 00:39:07;;;;;;;7.80;4.55;;;;;;;6.99;76.41;100226.83;1666694;84;21082;-80
2022/12/31 00:41:34;;;;;;;5.97;4.58;;;;;;;6.97;76.42;100229.41;1659566;84;21611;-80
2022/12/31 00:44:01;;;;;;;9.00;4.80;;;;;;;7.00;76.42;100219.97;1666925;84;21116;-81
2022/12/31 00:46:27;;;;;;;;;;;;;;;6.98;76.40;100225.98;1664690;84;21032;-80
2022/12/31 00:48:54;;;;;;;5.05;3.58;;;;;;;6.97;76.32;100232.41;1660001;84;20591;-80
2022/12/31 00:51:23;;;;;;;;;;;;;;;6.97;76.42;100243.98;1660235;84;21609;-80
2022/12/31 00:53:49;;;;;;;6.55;4.37;;;;;;;6.96;76.36;100240.56;1667296;84;20196;-80
2022/12/31 00:56:19;;;;;;;7.17;4.30;;;;;;;6.97;76.46;100264.11;1536424;84;5001905;-80
2022/12/31 00:58:46;;;;;;;5.12;4.33;;;;;;;6.99;76.46;100255.10;1666861;84;21067;-80
2022/12/31 01:01:16;;;;;;;;;;;;;;;7.01;76.49;100257.23;1674220;84;21158;-80
2022/12/31 01:03:43;;;;;;;6.12;4.37;;;;;;;7.05;76.44;100248.63;1670745;84;21062;-80
2022/12/31 01:06:10;;;;;;;8.30;4.10;;;;;;;7.08;76.51;100248.61;1668840;84;21580;-80
2022/12/31 01:08:55;;;;;;;6.37;4.30;;;;;;;7.11;76.50;100247.30;1678928;84;21106;-80
2022/12/31 01:11:41;;;;;;;6.08;4.35;;;;;;;7.14;76.51;100247.71;1666805;84;21039;-80
2022/12/31 01:14:26;;;;;;;9.70;4.92;;;;;;;7.18;76.52;100244.25;1680845;84;21126;-80
2022/12/31 01:17:12;;;;;;;6.83;4.50;;;;;;;7.21;76.54;100246.37;1681456;84;21087;-80
2022/12/31 01:19:58;;;;;;;4.67;4.00;;;;;;;7.24;76.55;100248.91;1679550;84;21035;-80
2022/12/31 01:22:43;;;;;;;8.25;4.42;;;;;;;7.27;76.56;100251.45;1695697;84;21047;-80
2022/12/31 01:25:31;;;;;;;7.58;3.90;;;;;;;7.32;76.59;100256.53;1670978;84;21138;-80
2022/12/31 01:28:20;;;;;;;5.95;4.08;;;;;;;7.35;76.59;100261.66;1704609;84;21046;-80
2022/12/31 01:31:12;;;;;;;4.83;3.80;;;;;;;7.40;76.61;100259.04;1685725;82;21088;-80
2022/12/31 01:33:58;;;;;;;7.12;4.00;;;;;;;7.44;76.62;100264.14;1700803;83;21442;-80
2022/12/31 01:36:43;;;;;;;6.85;4.05;;;;;;;7.49;76.63;100262.38;1658275;84;21048;-80
2022/12/31 01:39:28;;;;;;;7.00;4.42;;;;;;;7.52;76.61;100252.06;1686050;84;21503;-80
2022/12/31 01:41:55;;;;;;;7.90;3.85;;;;;;;7.59;76.65;100250.29;1703070;82;21095;-81
2022/12/31 01:44:29;;;;;;;4.85;3.77;;;;;;;7.61;76.64;100241.69;1692431;84;21047;-80
2022/12/31 01:47:00;;;;;;;7.20;4.15;;;;;;;7.66;76.66;100244.22;1693403;84;21137;-80
2022/12/31 01:49:43;;;;;;;6.42;4.35;;;;;;;7.70;76.68;100254.90;1703206;83;21133;-80
2022/12/31 01:52:20;;;;;;;5.08;4.00;;;;;;;7.73;76.65;100250.16;1701874;83;21122;-80
2022/12/31 01:54:52;;;;;;;6.65;4.42;;;;;;;7.74;76.69;100258.30;1696889;83;21109;-80
2022/12/31 01:57:20;;;;;;;5.87;4.55;;;;;;;7.76;76.74;100265.13;1692028;82;21149;-80
2022/12/31 01:59:47;;;;;;;6.33;4.15;;;;;;;7.79;76.75;100258.67;1700971;82;21052;-80
2022/12/31 02:02:15;;;;;;;5.70;4.15;;;;;;;7.81;76.76;100264.63;1689181;82;21054;-80
2022/12/31 02:04:41;;;;;;;4.87;4.15;;;;;;;7.84;76.77;100253.44;1695757;84;21522;-80
2022/12/31 02:07:09;;;;;;;6.00;3.62;;;;;;;7.85;76.77;100259.86;1689958;84;21067;-80
2022/12/31 02:09:39;;;;;;;7.25;4.12;;;;;;;7.87;76.75;100261.13;1695138;84;21565;-80
2022/12/31 02:12:08;;;;;;;5.22;4.55;;;;;;;7.90;76.78;100263.67;1699581;82;21518;-80
2022/12/31 02:14:54;;;;;;;6.17;3.83;;;;;;;7.92;76.79;100258.92;1699151;84;21552;-80
2022/12/31 02:17:28;;;;;;;6.55;4.40;;;;;;;7.94;76.79;100255.91;1700179;84;21111;-80
2022/12/31 02:20:47;;;;;;;6.35;4.62;;;;;;;7.95;76.79;100266.62;1686648;84;21115;-80
2022/12/31 02:23:54;;;;;;;6.65;4.15;;;;;;;7.98;76.79;100249.00;1693147;84;21084;-80
2022/12/31 02:27:03;;;;;;;6.33;4.10;;;;;;;7.98;76.81;100261.87;1641137;84;21031;-80
2022/12/31 02:30:13;;;;;;;4.87;4.00;;;;;;;8.00;76.83;100259.28;1692806;84;21020;-80
2022/12/31 02:33:12;;;;;;;7.60;4.20;;;;;;;8.00;76.82;100260.56;1659540;82;21108;-80
2022/12/31 02:36:02;;;;;;;5.58;4.10;;;;;;;8.01;76.84;100258.41;1698132;84;21588;-80
2022/12/31 02:38:49;;;;;;;8.88;4.70;;;;;;;8.00;76.84;100276.87;1696197;84;21056;-80
2022/12/31 02:44:25;;;;;;;6.50;4.72;;;;;;;8.02;76.86;100265.27;1691338;84;21063;-80
2022/12/31 02:47:06;;;;;;;4.90;3.95;;;;;;;8.03;76.89;100269.11;1699996;82;21039;-80
2022/12/31 02:50:15;;;;;;;4.97;4.22;;;;;;;8.06;76.91;100274.66;1687544;84;21056;-80
2022/12/31 02:53:13;;;;;;;7.42;4.28;;;;;;;8.06;76.90;100281.09;1699719;83;21688;-80
2022/12/31 02:56:03;;;;;;;6.28;4.20;;;;;;;8.06;76.92;100272.94;1697100;84;21084;-81
2022/12/31 03:02:14;;;;;;;9.30;5.08;;;;;;;8.07;76.95;100280.23;1697013;82;21075;-80
2022/12/31 03:04:53;;;;;;;7.58;5.03;;;;;;;8.09;76.96;100293.94;1698011;84;21557;-80
2022/12/31 03:07:30;;;;;;;6.55;4.17;;;;;;;8.09;76.95;100274.19;1688578;82;21948;-80
2022/12/31 03:09:58;;;;;;;7.00;4.42;;;;;;;8.08;76.98;100295.66;1664564;84;21162;-80
2022/12/31 03:12:47;;;;;;;7.70;4.97;;;;;;;8.10;76.99;100294.36;1699708;84;21088;-81
2022/12/31 03:15:25;;;;;;;5.33;4.35;;;;;;;8.09;76.96;100295.23;1699469;82;21091;-80
2022/12/31 03:18:05;;;;;;;8.43;5.05;;;;;;;8.08;76.97;100292.23;1673046;84;21092;-80
2022/12/31 03:23:33;;;;;;;5.03;4.28;;;;;;;8.08;77.03;100282.78;1698497;84;21313;-80
2022/12/31 03:26:01;;;;;;;6.50;4.83;;;;;;;8.09;77.04;100282.35;1698733;84;21052;-80
2022/12/31 03:28:30;;;;;;;7.62;4.28;;;;;;;8.08;77.04;100287.94;1698673;84;21107;-80
2022/12/31 03:31:00;;;;;;;4.58;4.08;;;;;;;8.07;77.06;100283.66;1699417;82;21068;-80
2022/12/31 03:33:34;;;;;;;5.30;4.30;;;;;;;8.08;77.06;100280.21;1698864;83;21147;-80
2022/12/31 03:36:11;;;;;;;6.87;4.60;;;;;;;8.08;77.09;100281.50;1699373;82;21604;-80
2022/12/31 03:38:37;;;;;;;;;;;;;;;8.09;77.12;100295.23;1699544;84;21076;-80
2022/12/31 03:41:04;;;;;;;4.72;4.03;;;;;;;8.09;77.17;100300.38;1699331;83;20267;-80
2022/12/31 03:43:30;;;;;;;;;;;;;;;8.08;77.12;100298.67;1702297;82;21131;-81
2022/12/31 03:46:00;;;;;;;6.20;4.10;;;;;;;8.09;77.19;100299.94;1697688;82;20962;-80
2022/12/31 03:48:26;;;;;;;7.05;3.85;;;;;;;8.09;77.17;100301.66;1700238;82;21107;-81
2022/12/31 03:50:53;;;;;;;6.47;4.45;;;;;;;8.08;77.17;100303.82;1699918;83;21047;-81
2022/12/31 03:53:20;;;;;;;4.28;3.80;;;;;;;8.08;77.18;100306.40;1699337;82;21060;-80
2022/12/31 03:55:53;;;;;;;5.00;3.67;;;;;;;8.06;77.18;100305.56;1657853;84;36557;-80
2022/12/31 03:58:20;;;;;;;4.72;3.58;;;;;;;8.04;77.16;100305.58;1669865;85;21954;-81
2022/12/31 04:00:46;;;;;;;;;;;;;;;8.02;77.17;100303.89;1702659;82;21454;-80
2022/12/31 04:03:13;;;;;;;6.00;4.08;;;;;;;8.01;77.30;100315.05;1700889;82;20201;-80
2022/12/31 04:05:40;;;;;;;5.30;3.90;;;;;;;7.98;77.23;100307.78;1701010;84;21024;-80
2022/12/31 04:08:06;;;;;;;5.20;3.65;;;;;;;7.97;77.29;100309.94;1672220;84;21029;-80
2022/12/31 04:10:32;;;;;;;4.55;3.60;;;;;;;7.96;77.28;100297.08;1672109;84;21170;-80
2022/12/31 04:13:01;;;;;;;5.35;3.58;;;;;;;;;;1671771;84;21625;-80
2022/12/31 04:15:27;;;;;;;4.78;3.62;;;;;;;7.94;77.32;100300.95;1672347;85;21066;-81
2022/12/31 04:17:53;;;;;;;4.50;3.62;;;;;;;7.95;77.34;100300.52;1673416;85;21511;-81
2022/12/31 04:20:20;;;;;;;5.22;4.03;;;;;;;7.97;77.36;100311.66;1701760;82;21313;-80
2022/12/31 04:22:46;;;;;;;4.87;3.98;;;;;;;7.96;77.38;100299.22;1701243;84;21597;-80
2022/12/31 04:25:13;;;;;;;5.00;3.83;;;;;;;7.98;77.40;100309.06;1700434;83;21048;-81
2022/12/31 04:27:42;;;;;;;4.05;3.27;;;;;;;7.98;77.38;100314.22;1672182;84;21040;-80
2022/12/31 04:30:10;;;;;;;6.87;3.98;;;;;;;7.98;77.40;100306.48;1671946;85;21110;-80
2022/12/31 04:32:37;;;;;;;5.78;3.65;;;;;;;7.99;77.41;100297.05;1671485;85;21589;-80
2022/12/31 04:35:04;;;;;;;4.80;3.52;;;;;;;7.97;77.39;100294.92;1672740;85;21089;-81
2022/12/31 04:37:31;;;;;;;5.22;3.75;;;;;;;7.95;77.41;100300.52;1701022;82;21588;-80
2022/12/31 04:39:57;;;;;;;4.78;3.80;;;;;;;7.92;77.41;100303.98;1701633;84;21579;-80
2022/12/31 04:42:24;;;;;;;4.22;3.27;;;;;;;7.89;77.45;100309.16;1701489;84;21556;-80
2022/12/31 04:44:50;;;;;;;4.05;3.22;;;;;;;7.87;77.48;100312.18;1669822;84;21065;-80
2022/12/31 04:47:16;;;;;;;5.15;3.70;;;;;;;7.87;77.51;100309.61;1672813;84;21268;-80
2022/12/31 04:49:44;;;;;;;8.25;4.00;;;;;;;7.85;77.48;100313.91;1672434;84;21558;-80
2022/12/31 04:52:10;;;;;;;4.20;3.60;;;;;;;7.84;77.52;100310.07;1670880;84;21499;-81
2022/12/31 04:54:37;;;;;;;4.65;3.45;;;;;;;7.81;77.51;100301.94;1671089;85;21385;-81
2022/12/31 04:57:19;;;;;;;4.70;3.72;;;;;;;7.79;77.53;100306.72;1649760;85;21454;-81
2022/12/31 04:59:45;;;;;;;5.20;3.52;;;;;;;7.75;77.55;100307.18;1670717;84;21084;-81
2022/12/31 05:02:12;;;;;;;4.62;4.00;;;;;;;7.72;77.57;100309.78;1669523;85;21077;-80
2022/12/31 05:04:38;;;;;;;5.80;3.85;;;;;;;7.71;77.61;100306.79;1669192;85;21025;-80
2022/12/31 05:07:05;;;;;;;4.97;3.77;;;;;;;7.68;77.67;100296.95;1669957;85;21005;-80
2022/12/31 05:09:31;;;;;;;4.60;3.85;;;;;;;7.67;77.69;100298.67;1669400;85;21174;-80
2022/12/31 05:11:58;;;;;;;5.45;4.20;;;;;;;7.66;77.70;100290.53;1668745;84;21026;-81
2022/12/31 05:14:43;;;;;;;4.72;3.90;;;;;;;7.64;77.71;100282.83;1646470;85;21049;-80
2022/12/31 05:17:30;;;;;;;5.72;3.58;;;;;;;7.66;77.74;100284.54;1652056;84;21080;-80
2022/12/31 05:20:20;;;;;;;4.00;3.35;;;;;;;7.66;77.76;100289.69;1639622;87;21109;-80
2022/12/31 05:23:07;;;;;;;4.90;3.30;;;;;;;7.66;77.82;100287.97;1645952;85;21611;-80
2022/12/31 05:25:52;;;;;;;5.20;3.55;;;;;;;7.69;77.83;100294.80;1669265;85;21181;-80
2022/12/31 05:28:39;;;;;;;4.03;3.35;;;;;;;7.70;77.88;100286.22;1664562;85;21576;-80
2022/12/31 05:31:26;;;;;;;6.25;3.08;;;;;;;7.71;77.89;100287.92;1648059;85;21112;-80
2022/12/31 05:34:11;;;;;;;5.20;3.33;;;;;;;7.73;77.94;100301.63;1653929;85;21716;-80
2022/12/31 05:36:59;;;;;;;5.55;3.47;;;;;;;7.76;77.95;100311.89;1645007;85;21561;-80
2022/12/31 05:39:44;;;;;;;2.80;2.55;;;;;;;7.77;77.94;100304.59;1660074;84;21097;-80
2022/12/31 05:42:32;;;;;;;4.00;3.22;;;;;;;7.78;77.97;100300.72;1647338;85;21127;-80
2022/12/31 05:45:41;;;;;;;3.72;2.98;;;;;;;7.80;78.01;100304.09;1705729;82;21075;-80
2022/12/31 05:48:30;;;;;;;4.12;3.30;;;;;;;7.82;78.05;100302.80;1727940;81;21319;-80
2022/12/31 05:51:25;;;;;;;4.10;3.58;;;;;;;7.85;78.09;100311.34;1708706;82;21019;-80
2022/12/31 05:54:44;;;;;;;4.55;3.47;;;;;;;7.87;78.07;100307.47;1728326;82;21043;-80
2022/12/31 05:57:46;;;;;;;6.17;3.60;;;;;;;7.89;78.06;100313.45;1728291;82;20993;-80
2022/12/31 06:00:44;;;;;;;6.00;3.25;;;;;;;7.91;78.13;100316.86;1689045;82;21088;-80
2022/12/31 06:03:45;;;;;;;4.12;3.33;;;;;;;7.93;78.14;100319.84;1703077;82;20991;-80
2022/12/31 06:06:48;;;;;;;6.17;3.65;;;;;;;7.95;78.16;100322.41;1702049;83;20950;-80
2022/12/31 06:09:33;;;;;;;5.03;3.80;;;;;;;7.97;78.20;100318.09;1701748;83;21311;-80
2022/12/31 06:12:19;;;;;;;4.37;3.22;;;;;;;7.97;78.21;100313.80;1677359;84;21378;-80
2022/12/31 06:15:09;;;;;;;3.77;3.10;;;;;;;8.00;78.22;100313.34;1699293;83;21463;-80
2022/12/31 06:17:55;;;;;;;5.92;3.27;;;;;;;8.01;78.24;100307.33;1699906;84;21115;-80
2022/12/31 06:20:45;;;;;;;3.87;3.30;;;;;;;8.02;78.26;100310.32;1702732;84;21084;-80
2022/12/31 06:23:58;;;;;;;4.97;3.22;;;;;;;8.03;78.29;100308.16;1703271;84;21032;-80
2022/12/31 06:27:10;;;;;;;3.95;3.27;;;;;;;8.04;78.29;100298.28;1702517;83;21621;-80
2022/12/31 06:30:22;;;;;;;3.50;2.92;;;;;;;8.05;78.34;100308.56;1701982;82;21068;-80
2022/12/31 06:33:22;;;;;;;5.92;3.25;;;;;;;8.06;78.40;100320.58;1703025;83;21434;-79
2022/12/31 06:36:16;;;;;;;4.60;3.27;;;;;;;8.07;78.43;100318.42;1674038;84;21035;-79
2022/12/31 06:39:11;;;;;;;5.17;3.12;;;;;;;8.10;78.45;100325.26;1668430;84;21067;-79
2022/12/31 06:41:56;;;;;;;4.58;3.40;;;;;;;8.11;78.47;100322.67;1676521;84;21044;-80
2022/12/31 06:44:42;;;;;;;3.60;2.87;;;;;;;8.13;78.58;100313.64;1700529;84;21052;-80
2022/12/31 06:47:28;;;;;;;;;;;;;;;8.15;78.54;100312.75;1662086;84;21438;-80
2022/12/31 06:50:13;;;;;;;3.70;2.70;;;;;;;8.17;78.71;100297.28;1535602;85;10000322;-80
2022/12/31 06:53:00;;;;;;;4.08;3.33;;;;;;;8.17;78.56;100301.14;1633118;84;21005;-80
2022/12/31 06:55:50;;;;;;;3.60;2.70;;;;;;;8.17;78.57;100299.86;1684217;84;20909;-80
2022/12/31 06:58:45;;;;;;;4.30;3.08;;;;;;;8.16;78.60;100304.16;1702295;83;20940;-80
2022/12/31 07:02:08;;;;;;;3.67;3.27;;;;;;;8.17;78.62;100285.70;1697425;82;21154;-80
2022/12/31 07:05:07;;;;;;;5.92;3.52;;;;;;;8.18;78.67;100284.39;1636464;84;21755;-81
2022/12/31 07:08:13;;;;;;;4.35;3.20;;;;;;;8.17;78.70;100272.38;1692967;84;21037;-81
2022/12/31 07:11:06;;;;;;;5.17;3.90;;;;;;;8.18;78.71;100257.34;1698878;83;21047;-81
2022/12/31 07:14:17;;;;;;;4.10;3.70;;;;;;;8.19;78.70;100260.78;1699613;84;21029;-81
2022/12/31 07:16:57;;;;;;;5.10;3.35;;;;;;;8.18;78.76;100273.23;1697167;84;21095;-81
2022/12/31 07:20:05;;;;;;;4.25;3.42;;;;;;;8.18;78.84;100272.80;1683312;84;21597;-81
2022/12/31 07:22:33;;;;;;;3.12;2.83;;;;;;;8.21;78.85;100287.36;1634057;84;21581;-80
2022/12/31 07:25:00;;;;;;;3.98;3.05;;;;;;;8.25;78.91;100286.02;1699324;84;21119;-80
2022/12/31 07:27:44;;;;;;;;;;;;;;;8.30;78.93;100309.16;1702774;84;21131;-81
2022/12/31 07:30:25;;;;;;;4.47;2.87;;;;;;;8.35;79.13;100312.53;1695309;84;20201;-80
2022/12/31 07:33:08;;;;;;;3.70;2.77;;;;;;;8.39;78.99;100312.91;1667870;82;21608;-80
2022/12/31 07:35:49;;;;;;;5.30;2.87;;;;;;;8.44;79.02;100312.86;1696052;82;21684;-81
2022/12/31 07:38:42;;;;;;;5.75;2.95;;;;;;;8.49;79.07;100305.48;1707049;82;21486;-80
2022/12/31 07:41:39;;;;;;;3.35;2.77;;;;;;;8.54;79.05;100300.28;1696069;84;21158;-80
2022/12/31 07:44:20;;;;;;;5.05;3.10;;;;;;;8.59;79.09;100307.08;1698145;84;21104;-81
2022/12/31 07:46:57;;;;;;;5.22;3.00;;;;;;;8.65;79.10;100310.45;1698793;84;21652;-81
2022/12/31 07:49:25;;;;;;;;;;;;;;;8.69;79.09;100305.23;1701937;82;21100;-80
2022/12/31 07:51:52;;;;;;;3.75;2.90;;;;;;;8.73;79.24;100300.45;1697741;82;20209;-80
2022/12/31 07:54:19;;;;;;;3.83;2.75;;;;;;;8.75;79.12;100288.40;1699886;82;21047;-80
2022/12/31 07:56:47;;;;;;;3.47;3.17;;;;;;;8.78;79.16;100291.37;1699429;82;21044;-81
2022/12/31 07:59:51;;;;;;;6.28;3.95;;;;;;;8.81;79.16;100285.73;1699287;84;21560;-80
2022/12/31 08:02:38;;;;;;;3.52;3.08;;;;;;;8.84;79.19;100280.95;1698291;82;22070;-80
2022/12/31 08:05:32;;;;;;;3.42;3.12;;;;;;;8.88;79.24;100290.34;1699725;82;21642;-80
2022/12/31 08:08:06;;;;;;;3.72;2.90;;;;;;;8.90;79.25;100292.46;1700378;82;21437;-80
2022/12/31 08:11:04;;;;;;;4.53;2.85;;;;;;;8.93;79.30;100283.39;1699638;82;21111;-80
2022/12/31 08:13:31;;;;;;;4.00;3.05;;;;;;;8.95;79.33;100291.52;1700204;84;22429;-81
2022/12/31 08:16:00;;;;;;;3.00;2.70;;;;;;;8.98;79.37;100296.22;1681263;84;446370;-80
2022/12/31 08:18:27;;;;;;;3.55;2.58;;;;;;;8.99;79.38;100296.64;1682604;83;21061;-81
2022/12/31 08:21:14;;;;;;;;;;;;;;;9.02;79.40;100306.91;1688153;83;21123;-80
2022/12/31 08:24:11;;;;;;;3.12;2.55;;;;;;;9.04;79.77;100302.14;1684128;84;20562;-81
2022/12/31 08:27:01;;;;;;;5.40;3.08;;;;;;;9.07;79.64;100301.25;1641793;85;21727;-80
2022/12/31 08:29:45;;;;;;;2.92;2.72;;;;;;;9.08;79.67;100292.20;1666546;84;21582;-80
2022/12/31 08:32:23;;;;;;;3.58;2.85;;;;;;;9.06;79.72;100279.77;1685432;84;21553;-81
2022/12/31 08:35:23;;;;;;;4.72;3.33;;;;;;;9.08;79.85;100281.03;1685608;84;21647;-80
2022/12/31 08:38:21;;;;;;;4.55;3.00;;;;;;;9.08;79.86;100262.53;1611438;84;22065;-80
2022/12/31 08:41:08;;;;;;;3.50;3.17;;;;;;;9.10;79.92;100265.94;1683237;84;21045;-80
2022/12/31 08:44:08;;;;;;;3.45;2.98;;;;;;;9.14;80.05;100267.59;1642676;84;21329;-81
2022/12/31 08:46:58;;;;;;;4.50;2.65;;;;;;;9.18;80.04;100261.95;1685935;84;21060;-81
2022/12/31 08:49:32;;;;;;;3.08;2.62;;;;;;;9.20;80.11;100266.22;1684579;83;21045;-80
2022/12/31 08:52:00;;;;;;;3.72;2.90;;;;;;;9.21;80.14;100270.50;1686850;83;21096;-81
2022/12/31 08:54:28;;;;;;;2.92;2.60;;;;;;;9.24;80.18;100266.58;1684639;84;21667;-80
2022/12/31 08:57:06;;;;;;;4.35;3.42;;;;;;;9.27;80.29;100263.09;1684124;84;21056;-81
2022/12/31 08:59:59;;;;;;;4.30;2.95;;;;;;;9.29;80.18;100266.06;1685572;84;21076;-80
2022/12/31 09:02:47;;;;;;;3.25;2.80;;;;;;;9.31;80.25;100267.33;1678643;83;21072;-80
2022/12/31 09:05:51;;;;;;;3.77;3.47;;;;;;;9.32;80.23;100260.00;1683663;84;21108;-80
2022/12/31 09:08:35;;;;;;;4.92;3.87;;;;;;;9.33;80.30;100256.98;1682665;84;21451;-81
2022/12/31 09:11:12;;;;;;;3.37;2.92;;;;;;;9.38;80.41;100251.28;1677936;83;21156;-81
2022/12/31 09:14:17;;;;;;;3.70;3.30;;;;;;;9.45;80.56;100253.73;1680480;84;21080;-81
2022/12/31 09:16:54;;;;;;;5.78;3.25;;;;;;;9.52;80.50;100266.09;1682651;83;21072;-80
2022/12/31 09:19:22;;;;;;;4.25;3.27;;;;;;;9.56;80.51;100260.85;1682462;84;21012;-81
2022/12/31 09:21:49;;;;;;;3.37;2.90;;;;;;;9.61;80.55;100264.20;1677313;84;21096;-80
2022/12/31 09:24:16;;;;;;;3.05;2.65;;;;;;;9.67;80.61;100259.81;1678513;84;21080;-81
2022/12/31 09:27:03;;;;;;;3.58;2.90;;;;;;;9.69;80.58;100252.89;1675372;84;21065;-80
2022/12/31 09:30:10;;;;;;;3.15;2.85;;;;;;;9.72;80.63;100243.80;1680405;84;21652;-80
2022/12/31 09:33:12;;;;;;;4.10;2.62;;;;;;;9.74;80.76;100249.78;1684158;83;21073;-80
2022/12/31 09:35:52;;;;;;;3.62;2.75;;;;;;;9.80;80.83;100250.97;1637079;83;21469;-81
2022/12/31 09:38:42;;;;;;;3.12;2.83;;;;;;;9.87;80.84;100254.70;1679051;84;21112;-81
2022/12/31 09:41:39;;;;;;;3.95;2.60;;;;;;;9.93;80.88;100230.02;1680906;84;21136;-81
2022/12/31 09:44:32;;;;;;;4.05;2.70;;;;;;;10.03;80.90;100250.50;1672199;84;21068;-80
2022/12/31 09:47:23;;;;;;;3.90;3.00;;;;;;;10.11;80.93;100252.05;1682010;84;21700;-80
2022/12/31 09:50:18;;;;;;;4.00;3.00;;;;;;;10.20;80.97;100232.97;1681598;84;21179;-80
2022/12/31 09:53:02;;;;;;;3.60;2.90;;;;;;;10.27;81.00;100234.55;1646278;83;21056;-80
2022/12/31 09:56:16;;;;;;;2.85;2.55;;;;;;;10.34;81.03;100227.07;1679716;83;21056;-81
2022/12/31 09:58:57;;;;;;;3.42;2.40;;;;;;;10.41;81.06;100223.44;1677979;84;21060;-81
2022/12/31 10:01:51;;;;;;;2.58;2.17;;;;;;;10.53;81.17;100237.39;1684398;84;21628;-81
2022/12/31 10:04:29;;;;;;;2.37;2.02;;;;;;;10.67;81.20;100224.61;1678610;83;21637;-81
2022/12/31 10:07:04;;;;;;;1.80;1.67;;;;;;;10.77;81.20;100210.58;1680644;83;21885;-81
2022/12/31 10:09:59;;;;;;;4.60;2.87;;;;;;;10.88;81.29;100201.69;1678220;84;21442;-81
2022/12/31 10:12:53;;;;;;;8.93;5.00;;;;;;;11.01;81.26;100225.50;1682681;84;21116;-81
2022/12/31 10:15:47;;;;;;;4.37;2.75;;;;;;;11.10;81.27;100222.69;1681654;83;21101;-81
2022/12/31 10:18:35;;;;;;;12.75;6.78;;;;;;;11.20;81.26;100225.46;1679549;84;21476;-80
2022/12/31 10:21:25;;;;;;;4.22;2.83;;;;;;;11.29;81.27;100223.09;1673516;84;21077;-80
2022/12/31 10:24:12;;;;;;;4.08;2.62;;;;;;;11.34;81.25;100213.47;1679432;83;22236;-81
2022/12/31 10:26:53;;;;;;;3.08;2.33;;;;;;;11.38;81.23;100210.36;1674150;83;21029;-81
2022/12/31 10:29:43;;;;;;;2.20;1.87;;;;;;;11.42;81.28;100202.48;1682026;83;21068;-81
2022/12/31 10:32:40;;;;;;;4.35;2.33;;;;;;;11.47;81.28;100194.11;1669570;83;21857;-81
2022/12/31 10:35:43;;;;;;;3.42;2.25;;;;;;;11.52;81.29;100196.58;1678356;84;21060;-81
2022/12/31 10:38:17;;;;;;;2.67;2.10;;;;;;;11.57;81.33;100190.39;1683798;83;21057;-81
2022/12/31 10:41:17;;;;;;;2.80;2.40;;;;;;;11.64;81.32;100200.59;1672165;84;21581;-81
2022/12/31 10:44:08;;;;;;;2.45;2.22;;;;;;;11.68;81.33;100202.20;1684844;84;21058;-81
2022/12/31 10:46:55;;;;;;;3.40;2.67;;;;;;;11.73;81.36;100196.45;1676739;84;21757;-81
2022/12/31 10:49:36;;;;;;;2.83;2.12;;;;;;;11.81;81.40;100184.17;1673136;84;21044;-81
2022/12/31 10:52:40;;;;;;;3.12;2.40;;;;;;;11.88;81.38;100187.84;1676796;84;21060;-81
2022/12/31 10:55:38;;;;;;;3.27;2.05;;;;;;;11.94;81.36;100188.12;1677419;84;21092;-81
2022/12/31 10:58:18;;;;;;;2.45;1.75;;;;;;;11.99;81.35;100164.64;1680511;83;21159;-81
2022/12/31 11:00:59;;;;;;;2.30;1.80;;;;;;;12.00;81.40;100167.63;1681861;83;21040;-81
2022/12/31 11:04:02;;;;;;;3.55;2.30;;;;;;;12.05;81.44;100160.58;1688524;83;21105;-81
2022/12/31 11:06:55;;;;;;;2.98;2.47;;;;;;;12.07;81.43;100158.34;1700414;82;21105;-81
2022/12/31 11:10:04;;;;;;;2.65;2.20;;;;;;;12.12;81.41;100165.53;1700849;82;21573;-81
2022/12/31 11:13:04;;;;;;;3.15;2.22;;;;;;;12.16;81.45;100160.66;1701137;82;21081;-81
2022/12/31 11:15:47;;;;;;;3.67;2.15;;;;;;;12.22;81.47;100165.66;1694199;82;21621;-81
2022/12/31 11:18:46;;;;;;;4.35;2.45;;;;;;;12.28;81.48;100162.05;1699075;83;21628;-81
2022/12/31 11:21:48;;;;;;;3.52;2.83;;;;;;;12.34;81.48;100159.72;1697799;83;21060;-81
2022/12/31 11:24:43;;;;;;;2.35;2.15;;;;;;;12.38;81.47;100175.58;1714265;83;21588;-81
2022/12/31 11:27:51;;;;;;;3.52;2.30;;;;;;;12.43;81.49;100170.66;1704772;82;21604;-81
2022/12/31 11:30:56;;;;;;;2.80;2.50;;;;;;;12.49;81.49;100176.91;1707340;83;21569;-81
2022/12/31 11:34:10;;;;;;;2.83;2.20;;;;;;;12.56;81.51;100164.61;1707028;82;21048;-81
2022/12/31 11:36:53;;;;;;;2.45;1.98;;;;;;;12.63;81.50;100153.59;1704238;82;21451;-81
2022/12/31 11:39:37;;;;;;;11.15;8.88;;;;;;;12.67;81.48;100160.38;1702852;82;21087;-80
2022/12/31 11:42:41;;;;;;;13.95;10.58;;;;;;;12.69;81.45;100154.25;1708277;82;21402;-81
2022/12/31 11:45:31;;;;;;;5.83;4.17;;;;;;;12.72;81.49;100146.37;1678181;84;21196;-81
2022/12/31 11:48:05;;;;;;;7.10;5.97;;;;;;;12.73;81.41;100145.47;1710866;82;22066;-81
2022/12/31 11:50:58;;;;;;;7.62;6.33;;;;;;;12.75;81.43;100141.53;1710363;82;21045;-81
2022/12/31 11:53:56;;;;;;;8.13;6.58;;;;;;;12.77;81.44;100147.07;1712256;83;21419;-80
2022/12/31 11:56:27;;;;;;;11.08;9.10;;;;;;;12.79;81.43;100153.51;1702332;82;23226;-80
2022/12/31 11:58:56;;;;;;;9.80;8.28;;;;;;;12.81;81.44;100151.27;1704766;83;21786;-81
2022/12/31 12:02:19;;;;;;;24.25;18.80;;;;;;;12.84;81.43;100159.40;1707290;83;21099;-81
2022/12/31 12:04:49;;;;;;;10.95;7.35;;;;;;;12.87;81.47;100153.66;1647590;85;21145;-81
2022/12/31 12:07:16;;;;;;;8.20;6.97;;;;;;;12.91;81.49;100166.94;1652941;85;22174;-81
2022/12/31 12:09:44;;;;;;;14.03;10.43;;;;;;;12.95;81.47;100163.79;1628637;87;21116;-81
2022/12/31 12:12:12;;;;;;;7.72;4.92;;;;;;;12.99;81.54;100167.13;1630607;87;21128;-81
2022/12/31 12:14:42;;;;;;;5.75;4.10;;;;;;;13.03;81.46;100171.30;1637260;86;21077;-81
2022/12/31 12:17:23;;;;;;;4.47;4.08;;;;;;;13.05;81.51;100166.45;1653940;85;21697;-81
2022/12/31 12:19:55;;;;;;;3.70;2.92;;;;;;;13.10;81.53;100162.41;1625659;87;21103;-81
2022/12/31 12:22:25;;;;;;;4.60;3.80;;;;;;;13.17;81.55;100160.88;1648741;86;21170;-81
2022/12/31 12:24:56;;;;;;;6.78;3.77;;;;;;;13.22;81.54;100165.47;1634842;86;21206;-81
2022/12/31 12:27:27;;;;;;;7.20;6.50;;;;;;;13.32;81.60;100163.86;1637077;86;21124;-81
2022/12/31 12:29:53;;;;;;;5.72;5.22;;;;;;;13.39;81.58;100159.70;1637005;87;21076;-81
2022/12/31 12:32:24;;;;;;;3.60;2.87;;;;;;;13.47;81.63;100148.59;1633808;87;21637;-80
2022/12/31 12:34:52;;;;;;;2.30;2.10;;;;;;;13.57;81.57;100149.94;1639393;84;21136;-80
2022/12/31 12:37:33;;;;;;;2.72;1.87;;;;;;;13.67;81.57;100163.90;1684723;83;21675;-81
2022/12/31 12:40:08;;;;;;;2.17;1.67;;;;;;;13.76;81.55;100158.38;1689430;84;21096;-81
2022/12/31 12:42:34;;;;;;;3.65;1.52;;;;;;;13.84;81.54;100148.55;1691029;83;21160;-81
2022/12/31 12:45:09;;;;;;;3.02;2.22;;;;;;;13.94;81.53;100146.45;1691110;83;21009;-81
2022/12/31 12:47:36;;;;;;;2.35;1.87;;;;;;;14.00;81.44;100149.67;1707633;83;21863;-81
2022/12/31 12:50:04;;;;;;;2.17;1.80;;;;;;;14.06;81.46;100158.97;1708925;83;21737;-81
2022/12/31 12:52:47;;;;;;;2.83;1.50;;;;;;;14.10;81.39;100165.30;1683604;83;21079;-81